sensor_id;sensor_type;location;lat;lon;timestamp;P1;durP1;ratioP1;P2;durP2;ratioP2
48621;SDS011;34421;48.944;9.460;2022-08-19T00:00:23;5.88;;;4.00;;
48621;SDS011;34421;48.944;9.460;2022-08-19T00:02:48;5.68;;;3.92;;
48621;SDS011;34421;48.944;9.460;2022-08-19T00:05:14;5.78;;;3.78;;
48621;SDS011;34421;48.944;9.460;2022-08-19T00:07:41;5.72;;;3.92;;
48621;SDS011;34421;48.944;9.460;2022-08-19T00:10:08;5.75;;;4.07;;
48621;SDS011;34421;48.944;9.460;2022-08-19T00:12:34;5.50;;;4.22;;
48621;SDS011;34421;48.944;9.460;2022-08-19T00:15:00;6.70;;;4.75;;
48621;SDS011;34421;48.944;9.460;2022-08-19T00:17:26;6.47;;;4.40;;
48621;SDS011;34421;48.944;9.460;2022-08-19T00:19:51;6.97;;;4.60;;
48621;SDS011;34421;48.944;9.460;2022-08-19T00:22:17;6.60;;;4.35;;
48621;SDS011;34421;48.944;9.460;2022-08-19T00:24:43;5.78;;;4.07;;
48621;SDS011;34421;48.944;9.460;2022-08-19T00:27:10;7.07;;;5.13;;
48621;SDS011;34421;48.944;9.460;2022-08-19T00:29:36;5.38;;;4.03;;
48621;SDS011;34421;48.944;9.460;2022-08-19T00:32:03;7.32;;;4.57;;
48621;SDS011;34421;48.944;9.460;2022-08-19T00:34:29;6.72;;;4.60;;
48621;SDS011;34421;48.944;9.460;2022-08-19T00:36:55;5.93;;;4.35;;
48621;SDS011;34421;48.944;9.460;2022-08-19T00:39:21;5.47;;;4.05;;
48621;SDS011;34421;48.944;9.460;2022-08-19T00:41:47;6.88;;;5.00;;
48621;SDS011;34421;48.944;9.460;2022-08-19T00:44:16;6.55;;;4.65;;
48621;SDS011;34421;48.944;9.460;2022-08-19T00:46:43;5.95;;;4.18;;
48621;SDS011;34421;48.944;9.460;2022-08-19T00:49:12;6.50;;;4.82;;
48621;SDS011;34421;48.944;9.460;2022-08-19T00:51:41;5.75;;;3.60;;
48621;SDS011;34421;48.944;9.460;2022-08-19T00:54:10;6.50;;;4.25;;
48621;SDS011;34421;48.944;9.460;2022-08-19T00:56:37;5.88;;;4.30;;
48621;SDS011;34421;48.944;9.460;2022-08-19T00:59:02;5.43;;;3.78;;
48621;SDS011;34421;48.944;9.460;2022-08-19T01:01:37;9.88;;;5.18;;
48621;SDS011;34421;48.944;9.460;2022-08-19T01:04:05;7.05;;;4.40;;
48621;SDS011;34421;48.944;9.460;2022-08-19T01:06:32;6.15;;;4.15;;
48621;SDS011;34421;48.944;9.460;2022-08-19T01:08:59;5.65;;;4.18;;
48621;SDS011;34421;48.944;9.460;2022-08-19T01:11:26;5.75;;;4.03;;
48621;SDS011;34421;48.944;9.460;2022-08-19T01:13:53;5.93;;;4.45;;
48621;SDS011;34421;48.944;9.460;2022-08-19T01:16:19;5.93;;;4.50;;
48621;SDS011;34421;48.944;9.460;2022-08-19T01:18:48;7.10;;;5.00;;
48621;SDS011;34421;48.944;9.460;2022-08-19T01:23:51;8.05;;;5.00;;
48621;SDS011;34421;48.944;9.460;2022-08-19T01:26:18;6.97;;;4.88;;
48621;SDS011;34421;48.944;9.460;2022-08-19T01:28:47;6.43;;;4.22;;
48621;SDS011;34421;48.944;9.460;2022-08-19T01:31:16;6.65;;;4.72;;
48621;SDS011;34421;48.944;9.460;2022-08-19T01:33:44;6.63;;;4.40;;
48621;SDS011;34421;48.944;9.460;2022-08-19T01:36:12;7.32;;;5.55;;
48621;SDS011;34421;48.944;9.460;2022-08-19T01:41:14;6.18;;;4.00;;
48621;SDS011;34421;48.944;9.460;2022-08-19T01:43:40;7.22;;;4.93;;
48621;SDS011;34421;48.944;9.460;2022-08-19T01:46:05;6.88;;;5.05;;
48621;SDS011;34421;48.944;9.460;2022-08-19T01:48:38;6.68;;;5.15;;
48621;SDS011;34421;48.944;9.460;2022-08-19T01:51:05;8.23;;;5.53;;
48621;SDS011;34421;48.944;9.460;2022-08-19T01:53:31;6.63;;;4.32;;
48621;SDS011;34421;48.944;9.460;2022-08-19T01:55:57;5.85;;;4.55;;
48621;SDS011;34421;48.944;9.460;2022-08-19T01:58:24;6.30;;;4.80;;
48621;SDS011;34421;48.944;9.460;2022-08-19T02:00:55;6.20;;;4.38;;
48621;SDS011;34421;48.944;9.460;2022-08-19T02:03:21;6.75;;;5.00;;
48621;SDS011;34421;48.944;9.460;2022-08-19T02:05:47;7.00;;;4.82;;
48621;SDS011;34421;48.944;9.460;2022-08-19T02:08:18;6.28;;;4.00;;
48621;SDS011;34421;48.944;9.460;2022-08-19T02:10:43;6.63;;;4.55;;
48621;SDS011;34421;48.944;9.460;2022-08-19T02:13:10;7.07;;;4.80;;
48621;SDS011;34421;48.944;9.460;2022-08-19T02:15:36;7.30;;;4.28;;
48621;SDS011;34421;48.944;9.460;2022-08-19T02:18:02;5.53;;;3.58;;
48621;SDS011;34421;48.944;9.460;2022-08-19T02:20:28;6.53;;;4.82;;
48621;SDS011;34421;48.944;9.460;2022-08-19T02:22:53;6.55;;;4.75;;
48621;SDS011;34421;48.944;9.460;2022-08-19T02:25:18;7.25;;;4.63;;
48621;SDS011;34421;48.944;9.460;2022-08-19T02:27:44;6.70;;;4.78;;
48621;SDS011;34421;48.944;9.460;2022-08-19T02:30:13;6.00;;;4.50;;
48621;SDS011;34421;48.944;9.460;2022-08-19T02:32:40;6.15;;;4.05;;
48621;SDS011;34421;48.944;9.460;2022-08-19T02:35:06;6.15;;;4.85;;
48621;SDS011;34421;48.944;9.460;2022-08-19T02:37:32;6.15;;;4.03;;
48621;SDS011;34421;48.944;9.460;2022-08-19T02:40:16;6.25;;;4.40;;
48621;SDS011;34421;48.944;9.460;2022-08-19T02:42:42;6.20;;;4.68;;
48621;SDS011;34421;48.944;9.460;2022-08-19T02:45:08;5.88;;;4.18;;
48621;SDS011;34421;48.944;9.460;2022-08-19T02:47:34;5.97;;;4.00;;
48621;SDS011;34421;48.944;9.460;2022-08-19T02:50:00;5.68;;;3.95;;
48621;SDS011;34421;48.944;9.460;2022-08-19T02:52:27;6.65;;;4.72;;
48621;SDS011;34421;48.944;9.460;2022-08-19T02:54:53;5.70;;;4.38;;
48621;SDS011;34421;48.944;9.460;2022-08-19T02:57:18;6.00;;;4.15;;
48621;SDS011;34421;48.944;9.460;2022-08-19T02:59:44;6.35;;;4.38;;
48621;SDS011;34421;48.944;9.460;2022-08-19T03:02:09;6.30;;;4.72;;
48621;SDS011;34421;48.944;9.460;2022-08-19T03:04:34;6.70;;;4.22;;
48621;SDS011;34421;48.944;9.460;2022-08-19T03:07:00;7.25;;;4.35;;
48621;SDS011;34421;48.944;9.460;2022-08-19T03:09:25;7.03;;;5.00;;
48621;SDS011;34421;48.944;9.460;2022-08-19T03:11:50;7.75;;;5.55;;
48621;SDS011;34421;48.944;9.460;2022-08-19T03:14:16;8.18;;;5.43;;
48621;SDS011;34421;48.944;9.460;2022-08-19T03:16:44;7.82;;;5.07;;
48621;SDS011;34421;48.944;9.460;2022-08-19T03:19:11;7.55;;;4.75;;
48621;SDS011;34421;48.944;9.460;2022-08-19T03:21:37;7.90;;;5.25;;
48621;SDS011;34421;48.944;9.460;2022-08-19T03:24:04;7.28;;;4.85;;
48621;SDS011;34421;48.944;9.460;2022-08-19T03:26:32;6.32;;;4.43;;
48621;SDS011;34421;48.944;9.460;2022-08-19T03:29:01;6.35;;;4.32;;
48621;SDS011;34421;48.944;9.460;2022-08-19T03:31:28;8.07;;;4.95;;
48621;SDS011;34421;48.944;9.460;2022-08-19T03:33:53;6.65;;;4.15;;
48621;SDS011;34421;48.944;9.460;2022-08-19T03:36:20;7.22;;;4.65;;
48621;SDS011;34421;48.944;9.460;2022-08-19T03:38:50;7.82;;;4.75;;
48621;SDS011;34421;48.944;9.460;2022-08-19T03:41:21;6.75;;;4.47;;
48621;SDS011;34421;48.944;9.460;2022-08-19T03:43:52;5.72;;;3.95;;
48621;SDS011;34421;48.944;9.460;2022-08-19T03:46:20;7.60;;;5.30;;
48621;SDS011;34421;48.944;9.460;2022-08-19T03:48:48;7.93;;;5.10;;
48621;SDS011;34421;48.944;9.460;2022-08-19T03:51:21;8.02;;;5.85;;
48621;SDS011;34421;48.944;9.460;2022-08-19T03:53:49;7.55;;;5.13;;
48621;SDS011;34421;48.944;9.460;2022-08-19T03:56:15;7.18;;;5.30;;
48621;SDS011;34421;48.944;9.460;2022-08-19T03:58:41;8.57;;;6.55;;
48621;SDS011;34421;48.944;9.460;2022-08-19T04:01:07;10.13;;;7.47;;
48621;SDS011;34421;48.944;9.460;2022-08-19T04:03:34;9.40;;;6.50;;
48621;SDS011;34421;48.944;9.460;2022-08-19T04:06:09;8.57;;;6.38;;
48621;SDS011;34421;48.944;9.460;2022-08-19T04:08:36;8.88;;;5.88;;
48621;SDS011;34421;48.944;9.460;2022-08-19T04:11:05;11.10;;;8.13;;
48621;SDS011;34421;48.944;9.460;2022-08-19T04:13:32;8.65;;;6.07;;
48621;SDS011;34421;48.944;9.460;2022-08-19T04:15:58;8.98;;;6.22;;
48621;SDS011;34421;48.944;9.460;2022-08-19T04:18:24;10.52;;;6.90;;
48621;SDS011;34421;48.944;9.460;2022-08-19T04:20:50;9.52;;;6.90;;
48621;SDS011;34421;48.944;9.460;2022-08-19T04:23:16;11.32;;;7.82;;
48621;SDS011;34421;48.944;9.460;2022-08-19T04:25:43;10.05;;;7.43;;
48621;SDS011;34421;48.944;9.460;2022-08-19T04:28:10;9.05;;;7.00;;
48621;SDS011;34421;48.944;9.460;2022-08-19T04:30:37;9.85;;;6.70;;
48621;SDS011;34421;48.944;9.460;2022-08-19T04:33:14;11.50;;;7.05;;
48621;SDS011;34421;48.944;9.460;2022-08-19T04:35:42;9.57;;;6.10;;
48621;SDS011;34421;48.944;9.460;2022-08-19T04:38:10;8.20;;;5.95;;
48621;SDS011;34421;48.944;9.460;2022-08-19T04:40:42;11.07;;;8.10;;
48621;SDS011;34421;48.944;9.460;2022-08-19T04:43:29;10.10;;;6.60;;
48621;SDS011;34421;48.944;9.460;2022-08-19T04:45:55;11.38;;;8.05;;
48621;SDS011;34421;48.944;9.460;2022-08-19T04:48:21;8.65;;;6.43;;
48621;SDS011;34421;48.944;9.460;2022-08-19T04:50:51;10.80;;;7.15;;
48621;SDS011;34421;48.944;9.460;2022-08-19T04:53:31;10.70;;;8.02;;
48621;SDS011;34421;48.944;9.460;2022-08-19T04:55:58;11.73;;;8.30;;
48621;SDS011;34421;48.944;9.460;2022-08-19T04:58:26;10.55;;;7.40;;
48621;SDS011;34421;48.944;9.460;2022-08-19T05:00:52;8.95;;;6.50;;
48621;SDS011;34421;48.944;9.460;2022-08-19T05:03:18;11.07;;;7.53;;
48621;SDS011;34421;48.944;9.460;2022-08-19T05:05:45;9.70;;;6.70;;
48621;SDS011;34421;48.944;9.460;2022-08-19T05:08:14;11.73;;;6.93;;
48621;SDS011;34421;48.944;9.460;2022-08-19T05:10:50;9.98;;;7.10;;
48621;SDS011;34421;48.944;9.460;2022-08-19T05:13:17;11.50;;;7.70;;
48621;SDS011;34421;48.944;9.460;2022-08-19T05:15:45;10.88;;;7.70;;
48621;SDS011;34421;48.944;9.460;2022-08-19T05:18:19;10.53;;;7.07;;
48621;SDS011;34421;48.944;9.460;2022-08-19T05:21:10;9.77;;;6.60;;
48621;SDS011;34421;48.944;9.460;2022-08-19T05:23:55;8.65;;;6.35;;
48621;SDS011;34421;48.944;9.460;2022-08-19T05:26:22;9.40;;;6.50;;
48621;SDS011;34421;48.944;9.460;2022-08-19T05:28:47;10.75;;;6.47;;
48621;SDS011;34421;48.944;9.460;2022-08-19T05:31:13;9.02;;;5.82;;
48621;SDS011;34421;48.944;9.460;2022-08-19T05:33:38;9.68;;;6.53;;
48621;SDS011;34421;48.944;9.460;2022-08-19T05:36:05;10.57;;;6.65;;
48621;SDS011;34421;48.944;9.460;2022-08-19T05:38:32;10.15;;;6.65;;
48621;SDS011;34421;48.944;9.460;2022-08-19T05:40:58;11.38;;;7.93;;
48621;SDS011;34421;48.944;9.460;2022-08-19T05:43:23;9.70;;;6.18;;
48621;SDS011;34421;48.944;9.460;2022-08-19T05:45:50;9.20;;;6.45;;
48621;SDS011;34421;48.944;9.460;2022-08-19T05:48:15;10.07;;;6.85;;
48621;SDS011;34421;48.944;9.460;2022-08-19T05:50:45;10.00;;;6.38;;
48621;SDS011;34421;48.944;9.460;2022-08-19T05:53:11;11.60;;;7.80;;
48621;SDS011;34421;48.944;9.460;2022-08-19T05:55:37;10.75;;;8.00;;
48621;SDS011;34421;48.944;9.460;2022-08-19T05:58:03;10.48;;;7.40;;
48621;SDS011;34421;48.944;9.460;2022-08-19T06:00:30;11.65;;;7.70;;
48621;SDS011;34421;48.944;9.460;2022-08-19T06:02:56;8.70;;;6.13;;
48621;SDS011;34421;48.944;9.460;2022-08-19T06:05:27;12.80;;;8.02;;
48621;SDS011;34421;48.944;9.460;2022-08-19T06:07:53;11.25;;;7.43;;
48621;SDS011;34421;48.944;9.460;2022-08-19T06:10:19;9.32;;;6.38;;
48621;SDS011;34421;48.944;9.460;2022-08-19T06:12:46;9.73;;;6.38;;
48621;SDS011;34421;48.944;9.460;2022-08-19T06:15:13;9.85;;;6.53;;
48621;SDS011;34421;48.944;9.460;2022-08-19T06:17:39;10.18;;;7.18;;
48621;SDS011;34421;48.944;9.460;2022-08-19T06:20:07;9.50;;;6.80;;
48621;SDS011;34421;48.944;9.460;2022-08-19T06:22:38;12.55;;;8.02;;
48621;SDS011;34421;48.944;9.460;2022-08-19T06:25:05;12.95;;;8.25;;
48621;SDS011;34421;48.944;9.460;2022-08-19T06:27:31;9.68;;;6.65;;
48621;SDS011;34421;48.944;9.460;2022-08-19T06:29:57;9.15;;;6.63;;
48621;SDS011;34421;48.944;9.460;2022-08-19T06:32:23;9.45;;;7.07;;
48621;SDS011;34421;48.944;9.460;2022-08-19T06:34:48;10.48;;;7.00;;
48621;SDS011;34421;48.944;9.460;2022-08-19T06:37:13;9.70;;;6.72;;
48621;SDS011;34421;48.944;9.460;2022-08-19T06:39:40;10.88;;;8.05;;
48621;SDS011;34421;48.944;9.460;2022-08-19T06:42:08;9.75;;;6.70;;
48621;SDS011;34421;48.944;9.460;2022-08-19T06:44:38;8.88;;;6.13;;
48621;SDS011;34421;48.944;9.460;2022-08-19T06:47:06;11.90;;;7.35;;
48621;SDS011;34421;48.944;9.460;2022-08-19T06:49:33;12.50;;;8.68;;
48621;SDS011;34421;48.944;9.460;2022-08-19T06:51:59;12.98;;;8.93;;
48621;SDS011;34421;48.944;9.460;2022-08-19T06:54:26;10.48;;;6.68;;
48621;SDS011;34421;48.944;9.460;2022-08-19T06:56:54;11.63;;;7.50;;
48621;SDS011;34421;48.944;9.460;2022-08-19T06:59:21;11.30;;;7.95;;
48621;SDS011;34421;48.944;9.460;2022-08-19T07:01:52;11.30;;;6.88;;
48621;SDS011;34421;48.944;9.460;2022-08-19T07:04:20;9.93;;;6.90;;
48621;SDS011;34421;48.944;9.460;2022-08-19T07:06:57;10.73;;;7.43;;
48621;SDS011;34421;48.944;9.460;2022-08-19T07:09:24;10.95;;;7.20;;
48621;SDS011;34421;48.944;9.460;2022-08-19T07:11:50;11.65;;;8.48;;
48621;SDS011;34421;48.944;9.460;2022-08-19T07:14:18;11.38;;;8.23;;
48621;SDS011;34421;48.944;9.460;2022-08-19T07:16:48;12.98;;;8.38;;
48621;SDS011;34421;48.944;9.460;2022-08-19T07:19:14;11.65;;;8.02;;
48621;SDS011;34421;48.944;9.460;2022-08-19T07:21:40;12.65;;;7.60;;
48621;SDS011;34421;48.944;9.460;2022-08-19T07:24:07;12.40;;;8.57;;
48621;SDS011;34421;48.944;9.460;2022-08-19T07:26:33;12.65;;;8.80;;
48621;SDS011;34421;48.944;9.460;2022-08-19T07:29:04;10.20;;;7.20;;
48621;SDS011;34421;48.944;9.460;2022-08-19T07:31:30;11.88;;;8.18;;
48621;SDS011;34421;48.944;9.460;2022-08-19T07:33:56;12.93;;;7.72;;
48621;SDS011;34421;48.944;9.460;2022-08-19T07:36:24;11.05;;;7.50;;
48621;SDS011;34421;48.944;9.460;2022-08-19T07:38:55;12.80;;;8.77;;
48621;SDS011;34421;48.944;9.460;2022-08-19T07:41:22;10.82;;;7.82;;
48621;SDS011;34421;48.944;9.460;2022-08-19T07:43:49;10.68;;;8.10;;
48621;SDS011;34421;48.944;9.460;2022-08-19T07:46:15;12.88;;;7.70;;
48621;SDS011;34421;48.944;9.460;2022-08-19T07:48:43;9.77;;;6.75;;
48621;SDS011;34421;48.944;9.460;2022-08-19T07:51:12;11.60;;;8.27;;
48621;SDS011;34421;48.944;9.460;2022-08-19T07:53:39;11.48;;;8.73;;
48621;SDS011;34421;48.944;9.460;2022-08-19T07:56:05;10.80;;;8.43;;
48621;SDS011;34421;48.944;9.460;2022-08-19T07:58:31;14.25;;;9.32;;
48621;SDS011;34421;48.944;9.460;2022-08-19T08:00:59;12.93;;;8.52;;
48621;SDS011;34421;48.944;9.460;2022-08-19T08:03:26;12.55;;;8.65;;
48621;SDS011;34421;48.944;9.460;2022-08-19T08:06:12;11.25;;;7.88;;
48621;SDS011;34421;48.944;9.460;2022-08-19T08:08:56;10.55;;;7.78;;
48621;SDS011;34421;48.944;9.460;2022-08-19T08:11:38;10.57;;;8.18;;
48621;SDS011;34421;48.944;9.460;2022-08-19T08:14:05;11.27;;;7.05;;
48621;SDS011;34421;48.944;9.460;2022-08-19T08:16:34;12.50;;;8.45;;
48621;SDS011;34421;48.944;9.460;2022-08-19T08:19:04;10.43;;;7.50;;
48621;SDS011;34421;48.944;9.460;2022-08-19T08:21:31;11.13;;;7.88;;
48621;SDS011;34421;48.944;9.460;2022-08-19T08:23:57;11.45;;;6.97;;
48621;SDS011;34421;48.944;9.460;2022-08-19T08:26:22;9.45;;;6.40;;
48621;SDS011;34421;48.944;9.460;2022-08-19T08:28:48;10.45;;;7.60;;
48621;SDS011;34421;48.944;9.460;2022-08-19T08:31:14;11.10;;;7.57;;
48621;SDS011;34421;48.944;9.460;2022-08-19T08:33:39;11.13;;;8.05;;
48621;SDS011;34421;48.944;9.460;2022-08-19T08:36:07;13.20;;;8.85;;
48621;SDS011;34421;48.944;9.460;2022-08-19T08:38:32;12.55;;;8.32;;
48621;SDS011;34421;48.944;9.460;2022-08-19T08:41:05;8.90;;;7.07;;
48621;SDS011;34421;48.944;9.460;2022-08-19T08:43:38;10.02;;;7.38;;
48621;SDS011;34421;48.944;9.460;2022-08-19T08:46:10;9.75;;;7.28;;
48621;SDS011;34421;48.944;9.460;2022-08-19T08:48:54;10.05;;;6.97;;
48621;SDS011;34421;48.944;9.460;2022-08-19T08:51:34;10.00;;;7.30;;
48621;SDS011;34421;48.944;9.460;2022-08-19T08:54:08;10.13;;;6.60;;
48621;SDS011;34421;48.944;9.460;2022-08-19T08:56:40;10.20;;;8.05;;
48621;SDS011;34421;48.944;9.460;2022-08-19T08:59:10;11.45;;;7.85;;
48621;SDS011;34421;48.944;9.460;2022-08-19T09:01:42;9.60;;;6.78;;
48621;SDS011;34421;48.944;9.460;2022-08-19T09:04:07;10.48;;;7.93;;
48621;SDS011;34421;48.944;9.460;2022-08-19T09:06:54;9.50;;;6.80;;
48621;SDS011;34421;48.944;9.460;2022-08-19T09:09:34;10.13;;;7.32;;
48621;SDS011;34421;48.944;9.460;2022-08-19T09:15:13;9.65;;;6.57;;
48621;SDS011;34421;48.944;9.460;2022-08-19T09:17:41;10.43;;;7.65;;
48621;SDS011;34421;48.944;9.460;2022-08-19T09:22:34;11.73;;;8.30;;
48621;SDS011;34421;48.944;9.460;2022-08-19T09:25:00;9.23;;;6.57;;
48621;SDS011;34421;48.944;9.460;2022-08-19T09:27:27;8.38;;;5.70;;
48621;SDS011;34421;48.944;9.460;2022-08-19T09:29:53;8.02;;;5.03;;
48621;SDS011;34421;48.944;9.460;2022-08-19T09:32:20;6.72;;;4.95;;
48621;SDS011;34421;48.944;9.460;2022-08-19T09:34:46;7.55;;;5.22;;
48621;SDS011;34421;48.944;9.460;2022-08-19T09:37:12;8.82;;;5.47;;
48621;SDS011;34421;48.944;9.460;2022-08-19T09:39:38;8.07;;;5.60;;
48621;SDS011;34421;48.944;9.460;2022-08-19T09:42:05;9.43;;;6.07;;
48621;SDS011;34421;48.944;9.460;2022-08-19T09:44:37;9.55;;;6.22;;
48621;SDS011;34421;48.944;9.460;2022-08-19T09:47:03;9.15;;;5.45;;
48621;SDS011;34421;48.944;9.460;2022-08-19T09:49:29;7.45;;;4.75;;
48621;SDS011;34421;48.944;9.460;2022-08-19T09:51:54;10.23;;;5.75;;
48621;SDS011;34421;48.944;9.460;2022-08-19T09:54:21;7.75;;;4.93;;
48621;SDS011;34421;48.944;9.460;2022-08-19T09:56:47;8.90;;;5.82;;
48621;SDS011;34421;48.944;9.460;2022-08-19T09:59:12;8.40;;;5.60;;
48621;SDS011;34421;48.944;9.460;2022-08-19T10:01:38;9.05;;;6.25;;
48621;SDS011;34421;48.944;9.460;2022-08-19T10:04:03;9.35;;;6.32;;
48621;SDS011;34421;48.944;9.460;2022-08-19T10:06:36;8.98;;;6.80;;
48621;SDS011;34421;48.944;9.460;2022-08-19T10:09:03;8.07;;;5.28;;
48621;SDS011;34421;48.944;9.460;2022-08-19T10:11:31;9.52;;;5.85;;
48621;SDS011;34421;48.944;9.460;2022-08-19T10:13:57;9.98;;;6.47;;
48621;SDS011;34421;48.944;9.460;2022-08-19T10:16:23;8.45;;;5.78;;
48621;SDS011;34421;48.944;9.460;2022-08-19T10:18:49;8.85;;;6.18;;
48621;SDS011;34421;48.944;9.460;2022-08-19T10:21:19;8.20;;;5.50;;
48621;SDS011;34421;48.944;9.460;2022-08-19T10:23:51;9.07;;;6.40;;
48621;SDS011;34421;48.944;9.460;2022-08-19T10:26:22;9.10;;;6.38;;
48621;SDS011;34421;48.944;9.460;2022-08-19T10:28:50;8.88;;;6.35;;
48621;SDS011;34421;48.944;9.460;2022-08-19T10:31:17;8.77;;;5.72;;
48621;SDS011;34421;48.944;9.460;2022-08-19T10:33:46;8.82;;;5.53;;
48621;SDS011;34421;48.944;9.460;2022-08-19T10:36:17;8.13;;;5.55;;
48621;SDS011;34421;48.944;9.460;2022-08-19T10:38:45;8.18;;;5.30;;
48621;SDS011;34421;48.944;9.460;2022-08-19T10:41:16;9.63;;;6.28;;
48621;SDS011;34421;48.944;9.460;2022-08-19T10:43:43;8.55;;;5.50;;
48621;SDS011;34421;48.944;9.460;2022-08-19T10:46:10;8.60;;;6.00;;
48621;SDS011;34421;48.944;9.460;2022-08-19T10:48:37;9.75;;;6.72;;
48621;SDS011;34421;48.944;9.460;2022-08-19T10:51:03;8.38;;;6.13;;
48621;SDS011;34421;48.944;9.460;2022-08-19T10:53:47;9.68;;;6.15;;
48621;SDS011;34421;48.944;9.460;2022-08-19T10:56:12;8.65;;;6.18;;
48621;SDS011;34421;48.944;9.460;2022-08-19T10:58:57;8.90;;;5.65;;
48621;SDS011;34421;48.944;9.460;2022-08-19T11:01:23;8.98;;;5.70;;
48621;SDS011;34421;48.944;9.460;2022-08-19T11:03:50;9.65;;;6.43;;
48621;SDS011;34421;48.944;9.460;2022-08-19T11:06:15;8.88;;;6.30;;
48621;SDS011;34421;48.944;9.460;2022-08-19T11:08:42;10.13;;;6.65;;
48621;SDS011;34421;48.944;9.460;2022-08-19T11:11:09;8.25;;;5.28;;
48621;SDS011;34421;48.944;9.460;2022-08-19T11:13:36;9.55;;;6.40;;
48621;SDS011;34421;48.944;9.460;2022-08-19T11:16:04;8.98;;;5.97;;
48621;SDS011;34421;48.944;9.460;2022-08-19T11:18:33;8.15;;;5.82;;
48621;SDS011;34421;48.944;9.460;2022-08-19T11:22:00;7.85;;;4.97;;
48621;SDS011;34421;48.944;9.460;2022-08-19T11:24:00;9.57;;;6.60;;
48621;SDS011;34421;48.944;9.460;2022-08-19T11:26:28;8.20;;;5.70;;
48621;SDS011;34421;48.944;9.460;2022-08-19T11:28:56;9.65;;;6.05;;
48621;SDS011;34421;48.944;9.460;2022-08-19T11:31:24;10.05;;;6.85;;
48621;SDS011;34421;48.944;9.460;2022-08-19T11:33:51;8.27;;;5.85;;
48621;SDS011;34421;48.944;9.460;2022-08-19T11:36:18;9.43;;;6.40;;
48621;SDS011;34421;48.944;9.460;2022-08-19T11:38:45;10.40;;;6.88;;
48621;SDS011;34421;48.944;9.460;2022-08-19T11:41:13;10.15;;;6.22;;
48621;SDS011;34421;48.944;9.460;2022-08-19T11:43:40;8.60;;;6.15;;
48621;SDS011;34421;48.944;9.460;2022-08-19T11:46:06;8.13;;;5.60;;
48621;SDS011;34421;48.944;9.460;2022-08-19T11:48:35;7.97;;;5.35;;
48621;SDS011;34421;48.944;9.460;2022-08-19T11:51:03;9.30;;;5.65;;
48621;SDS011;34421;48.944;9.460;2022-08-19T11:53:31;8.82;;;5.60;;
48621;SDS011;34421;48.944;9.460;2022-08-19T11:55:58;8.68;;;5.57;;
48621;SDS011;34421;48.944;9.460;2022-08-19T11:58:23;9.80;;;6.68;;
48621;SDS011;34421;48.944;9.460;2022-08-19T12:00:50;9.60;;;6.10;;
48621;SDS011;34421;48.944;9.460;2022-08-19T12:03:15;9.05;;;6.20;;
48621;SDS011;34421;48.944;9.460;2022-08-19T12:05:42;9.60;;;6.70;;
48621;SDS011;34421;48.944;9.460;2022-08-19T12:08:07;9.02;;;6.60;;
48621;SDS011;34421;48.944;9.460;2022-08-19T12:10:33;9.13;;;5.65;;
48621;SDS011;34421;48.944;9.460;2022-08-19T12:12:59;8.23;;;5.78;;
48621;SDS011;34421;48.944;9.460;2022-08-19T12:15:25;9.98;;;6.05;;
48621;SDS011;34421;48.944;9.460;2022-08-19T12:17:52;8.32;;;5.60;;
48621;SDS011;34421;48.944;9.460;2022-08-19T12:20:20;8.52;;;5.78;;
48621;SDS011;34421;48.944;9.460;2022-08-19T12:22:45;8.38;;;6.13;;
48621;SDS011;34421;48.944;9.460;2022-08-19T12:25:11;9.50;;;5.95;;
48621;SDS011;34421;48.944;9.460;2022-08-19T12:27:36;8.40;;;5.93;;
48621;SDS011;34421;48.944;9.460;2022-08-19T12:30:04;9.07;;;6.53;;
48621;SDS011;34421;48.944;9.460;2022-08-19T12:32:30;9.85;;;6.22;;
48621;SDS011;34421;48.944;9.460;2022-08-19T12:34:55;8.50;;;5.30;;
48621;SDS011;34421;48.944;9.460;2022-08-19T12:37:21;8.60;;;5.38;;
48621;SDS011;34421;48.944;9.460;2022-08-19T12:39:46;7.82;;;5.50;;
48621;SDS011;34421;48.944;9.460;2022-08-19T12:42:13;7.68;;;5.57;;
48621;SDS011;34421;48.944;9.460;2022-08-19T12:44:40;8.32;;;5.57;;
48621;SDS011;34421;48.944;9.460;2022-08-19T12:47:07;7.88;;;5.35;;
48621;SDS011;34421;48.944;9.460;2022-08-19T12:49:35;9.40;;;6.15;;
48621;SDS011;34421;48.944;9.460;2022-08-19T12:52:02;7.35;;;4.90;;
48621;SDS011;34421;48.944;9.460;2022-08-19T12:54:29;7.53;;;5.40;;
48621;SDS011;34421;48.944;9.460;2022-08-19T12:56:55;6.63;;;5.05;;
48621;SDS011;34421;48.944;9.460;2022-08-19T12:59:21;7.82;;;4.88;;
48621;SDS011;34421;48.944;9.460;2022-08-19T13:01:47;9.15;;;4.93;;
48621;SDS011;34421;48.944;9.460;2022-08-19T13:04:12;7.85;;;4.97;;
48621;SDS011;34421;48.944;9.460;2022-08-19T13:06:37;7.95;;;5.97;;
48621;SDS011;34421;48.944;9.460;2022-08-19T13:09:03;7.32;;;5.55;;
48621;SDS011;34421;48.944;9.460;2022-08-19T13:11:29;7.82;;;4.85;;
48621;SDS011;34421;48.944;9.460;2022-08-19T13:13:57;8.32;;;5.07;;
48621;SDS011;34421;48.944;9.460;2022-08-19T13:16:23;8.00;;;5.13;;
48621;SDS011;34421;48.944;9.460;2022-08-19T13:18:49;6.72;;;5.00;;
48621;SDS011;34421;48.944;9.460;2022-08-19T13:21:18;8.55;;;5.25;;
48621;SDS011;34421;48.944;9.460;2022-08-19T13:23:45;8.40;;;5.30;;
48621;SDS011;34421;48.944;9.460;2022-08-19T13:26:12;7.90;;;5.25;;
48621;SDS011;34421;48.944;9.460;2022-08-19T13:28:38;7.28;;;3.88;;
48621;SDS011;34421;48.944;9.460;2022-08-19T13:31:24;7.00;;;4.82;;
48621;SDS011;34421;48.944;9.460;2022-08-19T13:34:09;6.88;;;5.05;;
48621;SDS011;34421;48.944;9.460;2022-08-19T13:36:36;7.13;;;4.95;;
48621;SDS011;34421;48.944;9.460;2022-08-19T13:39:02;7.32;;;4.95;;
48621;SDS011;34421;48.944;9.460;2022-08-19T13:41:28;9.45;;;6.25;;
48621;SDS011;34421;48.944;9.460;2022-08-19T13:43:54;8.02;;;5.80;;
48621;SDS011;34421;48.944;9.460;2022-08-19T13:46:19;8.25;;;5.72;;
48621;SDS011;34421;48.944;9.460;2022-08-19T13:48:46;8.88;;;5.82;;
48621;SDS011;34421;48.944;9.460;2022-08-19T13:51:13;7.55;;;5.28;;
48621;SDS011;34421;48.944;9.460;2022-08-19T13:53:39;8.02;;;5.53;;
48621;SDS011;34421;48.944;9.460;2022-08-19T13:56:07;7.53;;;4.72;;
48621;SDS011;34421;48.944;9.460;2022-08-19T13:58:35;9.40;;;5.45;;
48621;SDS011;34421;48.944;9.460;2022-08-19T14:01:00;7.05;;;5.25;;
48621;SDS011;34421;48.944;9.460;2022-08-19T14:03:26;7.00;;;5.45;;
48621;SDS011;34421;48.944;9.460;2022-08-19T14:05:52;8.00;;;5.68;;
48621;SDS011;34421;48.944;9.460;2022-08-19T14:08:17;6.25;;;4.35;;
48621;SDS011;34421;48.944;9.460;2022-08-19T14:10:43;8.57;;;4.78;;
48621;SDS011;34421;48.944;9.460;2022-08-19T14:13:09;7.32;;;5.10;;
48621;SDS011;34421;48.944;9.460;2022-08-19T14:15:37;7.05;;;4.63;;
48621;SDS011;34421;48.944;9.460;2022-08-19T14:18:03;8.10;;;4.72;;
48621;SDS011;34421;48.944;9.460;2022-08-19T14:20:28;6.63;;;4.38;;
48621;SDS011;34421;48.944;9.460;2022-08-19T14:22:54;6.88;;;4.28;;
48621;SDS011;34421;48.944;9.460;2022-08-19T14:25:24;5.88;;;4.03;;
48621;SDS011;34421;48.944;9.460;2022-08-19T14:27:52;6.30;;;4.25;;
48621;SDS011;34421;48.944;9.460;2022-08-19T14:30:18;6.20;;;4.75;;
48621;SDS011;34421;48.944;9.460;2022-08-19T14:32:46;6.28;;;4.60;;
48621;SDS011;34421;48.944;9.460;2022-08-19T14:35:12;8.02;;;4.85;;
48621;SDS011;34421;48.944;9.460;2022-08-19T14:37:40;6.60;;;4.20;;
48621;SDS011;34421;48.944;9.460;2022-08-19T14:40:06;5.38;;;3.88;;
48621;SDS011;34421;48.944;9.460;2022-08-19T14:42:33;7.53;;;4.45;;
48621;SDS011;34421;48.944;9.460;2022-08-19T14:44:58;6.65;;;4.50;;
48621;SDS011;34421;48.944;9.460;2022-08-19T14:47:24;7.05;;;4.85;;
48621;SDS011;34421;48.944;9.460;2022-08-19T14:49:49;8.70;;;5.25;;
48621;SDS011;34421;48.944;9.460;2022-08-19T14:52:15;7.97;;;5.53;;
48621;SDS011;34421;48.944;9.460;2022-08-19T14:54:40;8.50;;;5.63;;
48621;SDS011;34421;48.944;9.460;2022-08-19T14:57:06;7.82;;;5.70;;